createdAt,value
2023-11-20T00:02:11.534Z,17.51
2023-11-20T00:04:39.242Z,17.53
2023-11-20T00:07:06.929Z,17.53
2023-11-20T00:09:34.686Z,17.52
2023-11-20T00:12:02.321Z,17.50
2023-11-20T00:14:31.164Z,17.52
2023-11-20T00:16:59.953Z,17.52
2023-11-20T00:19:28.202Z,17.53
2023-11-20T00:21:55.744Z,17.52
2023-11-20T00:24:23.282Z,17.52
2023-11-20T00:26:50.767Z,17.51
2023-11-20T00:29:18.320Z,17.50
2023-11-20T00:31:47.170Z,17.50
2023-11-20T00:34:14.796Z,17.46
2023-11-20T00:36:44.356Z,17.52
2023-11-20T00:39:11.908Z,17.55
2023-11-20T00:41:40.043Z,17.55
2023-11-20T00:44:08.090Z,17.57
2023-11-20T00:46:35.733Z,17.56
2023-11-20T00:49:06.555Z,17.57
2023-11-20T00:51:34.297Z,17.57
2023-11-20T00:54:01.856Z,17.55
2023-11-20T00:56:29.796Z,17.53
2023-11-20T00:58:57.289Z,17.56
2023-11-20T01:01:24.836Z,17.54
2023-11-20T01:03:52.426Z,17.53
2023-11-20T01:06:21.721Z,17.58
2023-11-20T01:08:49.290Z,17.59
2023-11-20T01:11:17.483Z,17.60
2023-11-20T01:13:44.988Z,17.63
2023-11-20T01:16:13.233Z,17.66
2023-11-20T01:18:40.829Z,17.64
2023-11-20T01:21:10.005Z,17.60
2023-11-20T01:23:39.807Z,17.57
2023-11-20T01:26:07.440Z,17.59
2023-11-20T01:28:36.478Z,17.65
2023-11-20T01:31:04.004Z,17.62
2023-11-20T01:33:31.575Z,17.65
2023-11-20T01:35:59.234Z,17.63
2023-11-20T01:38:27.163Z,17.62
2023-11-20T01:40:56.285Z,17.62
2023-11-20T01:43:23.840Z,17.66
2023-11-20T01:45:51.448Z,17.67
2023-11-20T01:48:19.071Z,17.70
2023-11-20T01:50:46.550Z,17.71
2023-11-20T01:53:14.059Z,17.69
2023-11-20T01:55:41.575Z,17.68
2023-11-20T01:58:10.823Z,17.65
2023-11-20T02:00:38.389Z,17.65
2023-11-20T02:03:07.627Z,17.66
2023-11-20T02:05:35.422Z,17.69
2023-11-20T02:08:03.946Z,17.70
2023-11-20T02:10:31.465Z,17.70
2023-11-20T02:12:59.910Z,17.75
2023-11-20T02:15:28.858Z,17.68
2023-11-20T02:17:56.380Z,17.62
2023-11-20T02:20:24.698Z,17.56
2023-11-20T02:22:52.219Z,17.53
2023-11-20T02:25:19.764Z,17.52
2023-11-20T02:27:53.489Z,17.57
2023-11-20T02:30:22.508Z,17.60
2023-11-20T02:32:49.886Z,17.64
2023-11-20T02:35:18.093Z,17.68
2023-11-20T02:37:46.112Z,17.70
2023-11-20T02:40:13.861Z,17.70
2023-11-20T02:42:42.109Z,17.71
2023-11-20T02:45:13.065Z,17.74
2023-11-20T02:47:41.924Z,17.77
2023-11-20T02:50:09.579Z,17.77
2023-11-20T02:52:37.142Z,17.74
2023-11-20T02:55:07.851Z,17.72
2023-11-20T02:57:35.425Z,17.72
2023-11-20T03:00:03.179Z,17.74
2023-11-20T03:02:30.912Z,17.72
2023-11-20T03:04:59.829Z,17.71
2023-11-20T03:07:27.327Z,17.69
2023-11-20T03:09:54.895Z,17.61
2023-11-20T03:12:22.445Z,17.52
2023-11-20T03:14:49.941Z,17.44
2023-11-20T03:17:17.553Z,17.45
2023-11-20T03:19:45.515Z,17.46
2023-11-20T03:22:14.495Z,17.51
2023-11-20T03:24:41.862Z,17.58
2023-11-20T03:27:09.365Z,17.58
2023-11-20T03:29:37.242Z,17.60
2023-11-20T03:32:05.412Z,17.61
2023-11-20T03:34:33.019Z,17.67
2023-11-20T03:37:00.639Z,17.67
2023-11-20T03:39:29.537Z,17.67
2023-11-20T03:41:57.070Z,17.72
2023-11-20T03:44:24.836Z,17.70
2023-11-20T03:46:52.425Z,17.68
2023-11-20T03:49:19.949Z,17.68
2023-11-20T03:51:47.669Z,17.70
2023-11-20T03:54:15.191Z,17.70
2023-11-20T03:56:44.045Z,17.72
2023-11-20T03:59:11.533Z,17.72
2023-11-20T04:01:39.129Z,17.75
2023-11-20T04:04:07.729Z,17.74
2023-11-20T04:06:35.316Z,17.72
2023-11-20T04:09:03.292Z,17.69
2023-11-20T04:11:30.949Z,17.70
2023-11-20T04:13:59.763Z,17.66
2023-11-20T04:16:27.587Z,17.66
2023-11-20T04:18:55.497Z,17.68
2023-11-20T04:21:23.318Z,17.71
2023-11-20T04:23:53.049Z,17.73
2023-11-20T04:26:20.594Z,17.69
2023-11-20T04:28:48.467Z,17.66
2023-11-20T04:31:17.360Z,17.63
2023-11-20T04:33:45.061Z,17.66
2023-11-20T04:36:12.674Z,17.67
2023-11-20T04:38:40.855Z,17.67
2023-11-20T04:41:09.006Z,17.69
2023-11-20T04:43:36.721Z,17.72
2023-11-20T04:46:04.236Z,17.69
2023-11-20T04:48:34.267Z,17.70
2023-11-20T04:51:01.878Z,17.70
2023-11-20T04:53:29.422Z,17.71
2023-11-20T04:55:57.598Z,17.71
2023-11-20T04:58:25.233Z,17.71
2023-11-20T05:00:53.523Z,17.71
2023-11-20T05:03:22.289Z,17.72
2023-11-20T05:05:51.362Z,17.69
2023-11-20T05:08:18.919Z,17.67
2023-11-20T05:10:46.536Z,17.65
2023-11-20T05:13:17.765Z,17.66
2023-11-20T05:15:46.884Z,17.65
2023-11-20T05:18:14.508Z,17.62
2023-11-20T05:20:42.020Z,17.60
2023-11-20T05:23:11.637Z,17.62
2023-11-20T05:25:39.217Z,17.62
2023-11-20T05:28:06.768Z,17.62
2023-11-20T05:30:34.359Z,17.62
2023-11-20T05:33:01.969Z,17.61
2023-11-20T05:35:29.491Z,17.60
2023-11-20T05:37:56.990Z,17.65
2023-11-20T05:40:26.018Z,17.63
2023-11-20T05:42:53.667Z,17.67
2023-11-20T05:45:21.229Z,17.66
2023-11-20T05:47:48.754Z,17.69
2023-11-20T05:50:16.310Z,17.69
2023-11-20T05:52:43.882Z,17.70
2023-11-20T05:55:11.497Z,17.71
2023-11-20T05:57:40.447Z,17.66
2023-11-20T06:00:11.337Z,17.65
2023-11-20T06:02:39.052Z,17.65
2023-11-20T06:05:09.890Z,17.63
2023-11-20T06:07:37.877Z,17.64
2023-11-20T06:10:05.921Z,17.65
2023-11-20T06:12:33.424Z,17.66
2023-11-20T06:15:02.527Z,17.65
2023-11-20T06:17:30.340Z,17.64
2023-11-20T06:19:58.602Z,17.63
2023-11-20T06:22:26.107Z,17.63
2023-11-20T06:24:53.687Z,17.61
2023-11-20T06:27:21.224Z,17.66
2023-11-20T06:29:48.753Z,17.67
2023-11-20T06:32:16.767Z,17.68
2023-11-20T06:34:44.339Z,17.68
2023-11-20T06:37:11.961Z,17.71
2023-11-20T06:39:40.541Z,17.74
2023-11-20T06:42:08.511Z,17.73
2023-11-20T06:44:38.610Z,17.70
2023-11-20T06:47:08.827Z,17.72
2023-11-20T06:49:37.815Z,17.75
2023-11-20T06:52:06.114Z,17.75
2023-11-20T06:54:33.661Z,17.77
2023-11-20T06:57:01.179Z,17.76
2023-11-20T06:59:30.526Z,17.80
2023-11-20T07:01:58.063Z,17.81
2023-11-20T07:04:25.677Z,17.81
2023-11-20T07:06:55.119Z,17.78
2023-11-20T07:09:29.974Z,17.77
2023-11-20T07:11:57.516Z,17.81
2023-11-20T07:14:25.836Z,17.81
2023-11-20T07:16:53.425Z,17.82
2023-11-20T07:19:22.325Z,17.82
2023-11-20T07:21:50.037Z,17.85
2023-11-20T07:24:20.832Z,17.82
2023-11-20T07:26:48.351Z,17.81
2023-11-20T07:29:16.064Z,17.81
2023-11-20T07:31:43.586Z,17.75
2023-11-20T07:34:11.162Z,17.83
2023-11-20T07:36:38.661Z,17.78
2023-11-20T07:39:06.181Z,17.81
2023-11-20T07:41:35.032Z,17.84
2023-11-20T07:44:02.576Z,17.83
2023-11-20T07:46:30.504Z,17.87
2023-11-20T07:48:59.261Z,17.82
2023-11-20T07:51:26.844Z,17.83
2023-11-20T07:53:54.967Z,17.86
2023-11-20T07:56:22.467Z,17.85
2023-11-20T07:58:53.348Z,17.89
2023-11-20T08:01:21.193Z,17.88
2023-11-20T08:03:49.310Z,17.85
2023-11-20T08:06:20.785Z,17.84
2023-11-20T08:08:49.653Z,17.87
2023-11-20T08:11:17.494Z,17.88
2023-11-20T08:13:45.063Z,17.91
2023-11-20T08:16:14.070Z,17.91
2023-11-20T08:18:41.745Z,17.94
2023-11-20T08:21:09.328Z,17.93
2023-11-20T08:23:36.857Z,17.95
2023-11-20T08:26:06.277Z,17.94
2023-11-20T08:28:33.769Z,17.96
2023-11-20T08:31:01.283Z,17.97
2023-11-20T08:33:30.304Z,17.99
2023-11-20T08:35:58.266Z,17.94
2023-11-20T08:38:25.776Z,17.93
2023-11-20T08:40:53.633Z,17.95
2023-11-20T08:43:21.348Z,17.93
2023-11-20T08:45:49.670Z,17.85
2023-11-20T08:48:19.116Z,17.84
2023-11-20T08:50:48.040Z,17.84
2023-11-20T08:53:15.982Z,17.84
2023-11-20T08:55:43.535Z,17.82
2023-11-20T08:58:11.546Z,17.77
2023-11-20T09:00:39.156Z,17.76
2023-11-20T09:03:06.736Z,17.70
2023-11-20T09:05:34.308Z,17.68
2023-11-20T09:08:03.585Z,17.73
2023-11-20T09:10:31.149Z,17.75
2023-11-20T09:12:58.730Z,17.77
2023-11-20T09:15:27.834Z,17.76
2023-11-20T09:17:55.397Z,17.78
2023-11-20T09:20:25.465Z,17.82
2023-11-20T09:22:52.949Z,17.83
2023-11-20T09:25:22.359Z,17.79
2023-11-20T09:27:50.023Z,17.76
2023-11-20T09:30:17.634Z,17.77
2023-11-20T09:32:46.006Z,17.80
2023-11-20T09:35:13.534Z,17.81
2023-11-20T09:37:41.038Z,17.73
2023-11-20T09:40:09.644Z,17.67
2023-11-20T09:42:40.948Z,17.69
2023-11-20T09:45:10.613Z,17.70
2023-11-20T09:47:38.269Z,17.69
2023-11-20T09:50:06.428Z,17.64
2023-11-20T09:52:34.896Z,17.66
2023-11-20T09:55:02.486Z,17.67
2023-11-20T09:57:30.005Z,17.69
2023-11-20T09:59:58.893Z,17.66
2023-11-20T10:02:26.582Z,17.51
2023-11-20T10:04:55.845Z,17.47
2023-11-20T10:07:25.095Z,17.44
2023-11-20T10:09:53.495Z,17.34
2023-11-20T10:12:21.001Z,17.33
2023-11-20T10:14:48.487Z,17.34
2023-11-20T10:17:17.380Z,17.36
2023-11-20T10:19:44.884Z,17.41
2023-11-20T10:22:12.465Z,17.44
2023-11-20T10:24:40.866Z,17.48
2023-11-20T10:27:08.464Z,17.45
2023-11-20T10:29:36.208Z,17.51
2023-11-20T10:32:04.054Z,17.56
2023-11-20T10:34:32.993Z,17.45
2023-11-20T10:37:10.036Z,17.44
2023-11-20T10:39:38.273Z,17.43
2023-11-20T10:42:06.569Z,17.42
2023-11-20T10:44:36.836Z,17.46
2023-11-20T10:47:06.083Z,17.46
2023-11-20T10:49:35.652Z,17.53
2023-11-20T10:52:04.842Z,17.58
2023-11-20T10:54:47.750Z,17.61
2023-11-20T10:57:15.553Z,17.67
2023-11-20T10:59:44.740Z,17.62
2023-11-20T11:02:19.841Z,17.55
2023-11-20T11:04:49.335Z,17.55
2023-11-20T11:07:17.652Z,17.53
2023-11-20T11:09:45.429Z,17.57
2023-11-20T11:12:13.489Z,17.61
2023-11-20T11:14:41.508Z,17.61
2023-11-20T11:17:11.910Z,17.63
2023-11-20T11:19:43.769Z,17.66
2023-11-20T11:22:14.455Z,17.67
2023-11-20T11:24:42.421Z,17.67
2023-11-20T11:27:14.280Z,17.69
2023-11-20T11:29:44.308Z,17.69
2023-11-20T11:32:31.329Z,17.72
2023-11-20T11:35:20.580Z,17.71
2023-11-20T11:37:52.625Z,17.72
2023-11-20T11:40:27.003Z,17.69
2023-11-20T11:42:57.123Z,17.67
2023-11-20T11:45:26.737Z,17.63
2023-11-20T11:47:54.349Z,17.53
2023-11-20T11:50:22.044Z,17.53
2023-11-20T11:52:51.320Z,17.56
2023-11-20T11:55:26.708Z,17.62
2023-11-20T11:57:58.694Z,17.57
2023-11-20T12:00:28.173Z,17.61
2023-11-20T12:02:57.778Z,17.61
2023-11-20T12:05:25.499Z,17.62
2023-11-20T12:07:58.219Z,17.60
2023-11-20T12:10:54.847Z,17.63
2023-11-20T12:13:22.712Z,17.60
2023-11-20T12:15:52.126Z,17.57
2023-11-20T12:18:22.380Z,17.56
2023-11-20T12:21:08.740Z,17.58
2023-11-20T12:23:38.427Z,17.59
2023-11-20T12:26:07.651Z,17.60
2023-11-20T12:28:36.561Z,17.59
2023-11-20T12:31:05.555Z,17.60
2023-11-20T12:33:33.816Z,17.58
2023-11-20T12:36:02.466Z,17.58
2023-11-20T12:38:31.765Z,17.59
2023-11-20T12:41:04.414Z,17.63
2023-11-20T12:43:32.152Z,17.65
2023-11-20T12:46:00.492Z,17.65
2023-11-20T12:48:29.579Z,17.65
2023-11-20T12:50:56.954Z,17.68
2023-11-20T12:53:24.613Z,17.66
2023-11-20T12:55:52.801Z,17.69
2023-11-20T12:58:21.782Z,17.67
2023-11-20T13:00:49.412Z,17.71
2023-11-20T13:03:18.363Z,17.71
2023-11-20T13:05:47.682Z,17.74
2023-11-20T13:08:16.382Z,17.68
2023-11-20T13:10:43.874Z,17.76
2023-11-20T13:13:12.728Z,17.80
2023-11-20T13:15:41.617Z,17.81
2023-11-20T13:18:09.284Z,17.79
2023-11-20T13:20:38.031Z,17.80
2023-11-20T13:23:05.591Z,17.82
2023-11-20T13:25:33.178Z,17.81
2023-11-20T13:28:00.723Z,17.80
2023-11-20T13:30:28.377Z,17.79
2023-11-20T13:32:57.528Z,17.82
2023-11-20T13:35:25.127Z,17.75
2023-11-20T13:37:55.993Z,17.75
2023-11-20T13:40:30.741Z,17.72
2023-11-20T13:43:04.586Z,17.69
2023-11-20T13:45:32.532Z,17.72
2023-11-20T13:48:01.448Z,17.73
2023-11-20T13:50:29.028Z,17.71
2023-11-20T13:52:57.315Z,17.74
2023-11-20T13:55:24.851Z,17.75
2023-11-20T13:57:52.452Z,17.77
2023-11-20T14:00:20.598Z,17.80
2023-11-20T14:02:48.775Z,17.82
2023-11-20T14:05:18.674Z,17.84
2023-11-20T14:07:46.399Z,17.85
2023-11-20T14:10:14.049Z,17.85
2023-11-20T14:12:41.702Z,17.86
2023-11-20T14:15:09.687Z,17.83
2023-11-20T14:17:37.195Z,17.83
2023-11-20T14:20:06.341Z,17.81
2023-11-20T14:22:35.220Z,17.78
2023-11-20T14:25:04.751Z,17.85
2023-11-20T14:27:32.536Z,17.91
2023-11-20T14:30:00.155Z,17.90
2023-11-20T14:32:27.756Z,17.91
2023-11-20T14:34:55.296Z,17.84
2023-11-20T14:37:23.718Z,17.84
2023-11-20T14:39:54.235Z,17.85
2023-11-20T14:42:21.822Z,17.93
2023-11-20T14:44:49.845Z,17.89
2023-11-20T14:47:17.361Z,17.85
2023-11-20T14:49:44.866Z,17.91
2023-11-20T14:52:13.233Z,17.91
2023-11-20T14:54:41.315Z,17.93
2023-11-20T14:57:10.142Z,18.02
2023-11-20T14:59:37.625Z,18.07
2023-11-20T15:02:05.484Z,18.06
2023-11-20T15:04:33.084Z,17.98
2023-11-20T15:07:00.916Z,17.98
2023-11-20T15:09:28.477Z,17.90
2023-11-20T15:11:55.989Z,17.93
2023-11-20T15:14:25.250Z,17.94
2023-11-20T15:16:52.816Z,17.94
2023-11-20T15:19:20.403Z,17.96
2023-11-20T15:21:50.518Z,17.97
2023-11-20T15:24:18.034Z,17.98
2023-11-20T15:26:47.642Z,18.01
2023-11-20T15:29:15.211Z,17.97
2023-11-20T15:31:44.068Z,17.90
2023-11-20T15:34:11.679Z,17.95
2023-11-20T15:36:40.939Z,18.03
2023-11-20T15:39:08.508Z,18.06
2023-11-20T15:41:36.029Z,18.14
2023-11-20T15:44:05.129Z,18.14
2023-11-20T15:46:32.658Z,18.12
2023-11-20T15:49:01.559Z,18.08
2023-11-20T15:51:29.085Z,18.03
2023-11-20T15:53:56.573Z,18.07
2023-11-20T15:56:24.093Z,18.03
2023-11-20T15:58:51.615Z,18.03
2023-11-20T16:01:25.060Z,17.99
2023-11-20T16:03:59.537Z,17.92
2023-11-20T16:06:28.522Z,17.93
2023-11-20T16:08:56.055Z,17.88
2023-11-20T16:11:23.579Z,17.85
2023-11-20T16:13:51.579Z,17.91
2023-11-20T16:16:19.291Z,17.88
2023-11-20T16:18:47.143Z,17.82
2023-11-20T16:21:14.693Z,17.79
2023-11-20T16:23:44.406Z,17.83
2023-11-20T16:26:14.499Z,17.90
2023-11-20T16:28:43.560Z,17.91
2023-11-20T16:31:11.112Z,17.90
2023-11-20T16:33:38.631Z,17.90
2023-11-20T16:36:06.780Z,17.95
2023-11-20T16:38:34.644Z,17.92
2023-11-20T16:41:03.536Z,18.10
2023-11-20T16:43:31.125Z,18.20
2023-11-20T16:45:59.852Z,18.13
2023-11-20T16:48:28.005Z,18.07
2023-11-20T16:50:55.521Z,18.16
2023-11-20T16:53:23.082Z,18.23
2023-11-20T16:55:50.592Z,18.35
2023-11-20T16:58:19.872Z,18.26
2023-11-20T17:00:48.234Z,18.14
2023-11-20T17:03:15.921Z,18.16
2023-11-20T17:05:45.597Z,18.25
2023-11-20T17:08:13.130Z,18.26
2023-11-20T17:13:11.022Z,18.18
2023-11-20T17:15:39.848Z,18.16
2023-11-20T17:18:07.429Z,18.22
2023-11-20T17:20:34.989Z,18.19
2023-11-20T17:23:02.498Z,18.16
2023-11-20T17:25:30.006Z,18.16
2023-11-20T17:27:57.943Z,18.17
2023-11-20T17:30:25.515Z,18.18
2023-11-20T17:32:54.377Z,18.18
2023-11-20T17:35:24.706Z,18.18
2023-11-20T17:40:21.387Z,18.25
2023-11-20T17:42:50.538Z,18.24
2023-11-20T17:45:18.352Z,18.22
2023-11-20T17:47:45.907Z,18.21
2023-11-20T17:50:14.744Z,18.22
2023-11-20T17:52:42.312Z,18.23
2023-11-20T17:55:10.673Z,18.27
2023-11-20T17:57:39.709Z,18.27
2023-11-20T18:00:11.418Z,18.26
2023-11-20T18:02:39.403Z,18.28
2023-11-20T18:05:08.528Z,18.25
2023-11-20T18:07:38.076Z,18.28
2023-11-20T18:10:11.708Z,18.29
2023-11-20T18:12:39.837Z,18.29
2023-11-20T18:15:11.374Z,18.34
2023-11-20T18:17:40.075Z,18.32
2023-11-20T18:20:10.378Z,18.33
2023-11-20T18:22:40.225Z,18.31
2023-11-20T18:25:09.248Z,18.33
2023-11-20T18:27:38.592Z,18.32
2023-11-20T18:30:07.378Z,18.33
2023-11-20T18:32:34.990Z,18.36
2023-11-20T18:35:03.330Z,18.35
2023-11-20T18:37:30.855Z,18.34
2023-11-20T18:39:59.750Z,18.33
2023-11-20T18:42:27.285Z,18.35
2023-11-20T18:44:54.788Z,18.41
2023-11-20T18:47:23.762Z,18.40
2023-11-20T18:49:51.085Z,18.36
2023-11-20T18:52:18.595Z,18.41
2023-11-20T18:54:47.850Z,18.45
2023-11-20T18:57:16.806Z,18.40
2023-11-20T18:59:44.133Z,18.40
2023-11-20T19:02:11.630Z,18.38
2023-11-20T19:04:39.336Z,18.36
2023-11-20T19:07:07.131Z,18.42
2023-11-20T19:09:37.936Z,18.44
2023-11-20T19:12:07.948Z,18.38
2023-11-20T19:14:36.857Z,18.40
2023-11-20T19:17:05.878Z,18.37
2023-11-20T19:19:33.622Z,18.45
2023-11-20T19:22:01.285Z,18.45
2023-11-20T19:24:28.835Z,18.46
2023-11-20T19:26:56.366Z,18.41
2023-11-20T19:29:24.068Z,18.44
2023-11-20T19:31:55.585Z,18.44
2023-11-20T19:34:23.264Z,18.47
2023-11-20T19:36:50.800Z,18.46
2023-11-20T19:39:18.322Z,18.48
2023-11-20T19:41:45.804Z,18.46
2023-11-20T19:44:13.398Z,18.43
2023-11-20T19:46:41.276Z,18.44
2023-11-20T19:49:10.396Z,18.44
2023-11-20T19:51:38.536Z,18.42
2023-11-20T19:54:06.465Z,18.40
2023-11-20T19:56:34.012Z,18.40
2023-11-20T19:59:01.789Z,18.43
2023-11-20T20:01:29.476Z,18.42
2023-11-20T20:03:57.964Z,18.49
2023-11-20T20:06:26.932Z,18.48
2023-11-20T20:08:54.248Z,18.48
2023-11-20T20:11:22.011Z,18.49
2023-11-20T20:13:49.553Z,18.47
2023-11-20T20:16:17.126Z,18.52
2023-11-20T20:18:44.715Z,18.48
2023-11-20T20:21:12.849Z,18.48
2023-11-20T20:23:41.688Z,18.46
2023-11-20T20:26:09.223Z,18.52
2023-11-20T20:28:36.943Z,18.51
2023-11-20T20:31:05.680Z,18.51
2023-11-20T20:33:33.215Z,18.47
2023-11-20T20:36:00.854Z,18.50
2023-11-20T20:38:28.401Z,18.52
2023-11-20T20:40:58.367Z,18.47
2023-11-20T20:43:26.505Z,18.50
2023-11-20T20:45:54.435Z,18.47
2023-11-20T20:48:22.083Z,18.49
2023-11-20T20:50:49.694Z,18.50
2023-11-20T20:53:17.243Z,18.57
2023-11-20T20:55:44.779Z,18.59
2023-11-20T20:58:13.900Z,18.61
2023-11-20T21:00:41.432Z,18.56
2023-11-20T21:03:09.906Z,18.57
2023-11-20T21:05:38.006Z,18.58
2023-11-20T21:08:05.571Z,18.56
2023-11-20T21:10:33.086Z,18.57
2023-11-20T21:13:01.798Z,18.56
2023-11-20T21:15:31.621Z,18.50
2023-11-20T21:17:59.167Z,18.45
2023-11-20T21:20:26.665Z,18.49
2023-11-20T21:22:54.160Z,18.52
2023-11-20T21:25:24.481Z,18.49
2023-11-20T21:27:52.313Z,18.56
2023-11-20T21:30:19.952Z,18.68
2023-11-20T21:32:49.370Z,18.62
2023-11-20T21:35:17.039Z,18.66
2023-11-20T21:37:45.074Z,18.60
2023-11-20T21:40:12.604Z,18.58
2023-11-20T21:42:40.272Z,18.63
2023-11-20T21:45:09.427Z,18.66
2023-11-20T21:47:37.035Z,18.62
2023-11-20T21:50:07.048Z,18.68
2023-11-20T21:52:34.668Z,18.68
2023-11-20T21:55:03.065Z,18.60
2023-11-20T21:57:30.584Z,18.56
2023-11-20T21:59:58.132Z,18.52
2023-11-20T22:02:25.660Z,18.48
2023-11-20T22:04:53.358Z,18.50
2023-11-20T22:07:22.310Z,18.51
2023-11-20T22:09:49.708Z,18.52
2023-11-20T22:12:17.308Z,18.62
2023-11-20T22:14:44.992Z,18.66
2023-11-20T22:17:12.506Z,18.61
2023-11-20T22:19:40.179Z,18.57
2023-11-20T22:22:07.783Z,18.58
2023-11-20T22:24:36.760Z,18.51
2023-11-20T22:27:04.210Z,18.60
2023-11-20T22:29:31.696Z,18.67
2023-11-20T22:31:59.261Z,18.62
2023-11-20T22:34:26.850Z,18.63
2023-11-20T22:36:54.384Z,18.63
2023-11-20T22:39:22.308Z,18.69
2023-11-20T22:41:51.155Z,18.58
2023-11-20T22:44:18.689Z,18.58
2023-11-20T22:46:46.245Z,18.61
2023-11-20T22:49:14.514Z,18.59
2023-11-20T22:51:42.050Z,18.65
2023-11-20T22:54:09.581Z,18.66
2023-11-20T22:56:37.200Z,18.62
2023-11-20T22:59:06.304Z,18.53
2023-11-20T23:01:34.890Z,18.53
2023-11-20T23:04:03.336Z,18.59
2023-11-20T23:06:31.676Z,18.54
2023-11-20T23:08:59.178Z,18.56
2023-11-20T23:11:26.670Z,18.54
2023-11-20T23:13:54.203Z,18.51
2023-11-20T23:16:23.174Z,18.53
2023-11-20T23:18:50.586Z,18.55
2023-11-20T23:21:18.091Z,18.60
2023-11-20T23:23:45.571Z,18.57
2023-11-20T23:26:13.047Z,18.54
2023-11-20T23:28:40.598Z,18.67
2023-11-20T23:31:08.405Z,18.75
2023-11-20T23:33:37.283Z,18.64
2023-11-20T23:36:05.246Z,18.67
2023-11-20T23:38:32.790Z,18.69
2023-11-20T23:41:00.430Z,18.64
2023-11-20T23:43:28.392Z,18.63
2023-11-20T23:45:59.416Z,18.59
2023-11-20T23:48:26.935Z,18.59
2023-11-20T23:50:55.779Z,18.54
2023-11-20T23:53:23.175Z,18.57
2023-11-20T23:55:50.867Z,18.60
2023-11-20T23:58:18.457Z,18.56
